Time;durP1;ratioP1;P1;durP2;ratioP2;P2;SDS_P1;SDS_P2;PMS_P1;PMS_P2;Temp;Humidity;BMP_temperature;BMP_pressure;BME280_temperature;BME280_humidity;BME280_pressure;Samples;Min_cycle;Max_cycle;Signal;HPM_P1;HPM_P2
2023/03/14 00:01:23;;;;;;;24.40;6.97;;;;;;;6.22;61.77;101265.09;4974080;28;20073;-84
2023/03/14 00:03:48;;;;;;;85.03;12.85;;;;;;;6.21;62.16;101271.34;4974256;28;20035;-84
2023/03/14 00:06:15;;;;;;;73.55;11.88;;;;;;;6.23;62.01;101261.47;4974347;28;20394;-85
2023/03/14 00:08:42;;;;;;;39.55;10.13;;;;;;;6.30;62.10;101256.69;4974487;28;20035;-85
2023/03/14 00:11:13;;;;;;;31.75;8.70;;;;;;;6.28;61.84;101243.38;4974331;28;20023;-84
2023/03/14 00:13:39;;;;;;;67.25;8.65;;;;;;;6.24;61.99;101244.50;4974533;28;20034;-84
2023/03/14 00:16:11;;;;;;;26.60;8.43;;;;;;;6.34;61.76;101255.53;4974414;28;20102;-86
2023/03/14 00:18:37;;;;;;;23.88;8.45;;;;;;;6.15;61.64;101244.13;4973965;28;20027;-87
2023/03/14 00:21:05;;;;;;;18.00;7.85;;;;;;;6.11;62.06;101248.78;4974257;28;20031;-83
2023/03/14 00:23:32;;;;;;;24.77;9.18;;;;;;;6.12;62.38;101241.59;4977034;28;20082;-85
2023/03/14 00:26:02;;;;;;;16.35;7.15;;;;;;;6.17;62.38;101243.13;4976813;28;20053;-82
2023/03/14 00:28:28;;;;;;;15.80;7.45;;;;;;;6.14;62.14;101237.94;4988188;28;20026;-80
2023/03/14 00:30:54;;;;;;;13.85;7.30;;;;;;;6.21;62.29;101236.63;4996785;28;20086;-83
2023/03/14 00:33:19;;;;;;;16.98;8.40;;;;;;;6.12;62.08;101223.78;4988542;28;20027;-84
2023/03/14 00:36:03;;;;;;;17.33;7.53;;;;;;;6.05;61.99;101217.06;4973962;28;20444;-83
2023/03/14 00:38:31;;;;;;;13.95;7.03;;;;;;;5.94;62.71;101214.06;4973950;28;20019;-83
2023/03/14 00:40:57;;;;;;;18.75;6.75;;;;;;;5.94;62.91;101206.06;4974210;28;20431;-86
2023/03/14 00:43:22;;;;;;;13.10;6.68;;;;;;;5.97;62.73;101200.56;4974550;28;20027;-84
2023/03/14 00:45:52;;;;;;;12.05;6.05;;;;;;;5.97;62.64;101206.78;4958789;28;20516;-83
2023/03/14 00:48:19;;;;;;;25.88;7.78;;;;;;;5.97;62.77;101189.88;4979084;28;20046;-84
2023/03/14 00:50:45;;;;;;;15.45;7.78;;;;;;;5.88;62.41;101195.72;4992887;28;20104;-83
2023/03/14 00:53:10;;;;;;;17.63;6.85;;;;;;;5.82;62.67;101190.66;4998332;28;20043;-83
2023/03/14 00:55:40;;;;;;;21.92;6.43;;;;;;;5.77;62.59;101182.06;4996847;28;20026;-83
2023/03/14 00:58:06;;;;;;;25.52;6.82;;;;;;;5.72;63.06;101186.78;4994997;28;20023;-83
2023/03/14 01:00:32;;;;;;;22.45;6.72;;;;;;;5.71;63.10;101185.03;4996490;28;20018;-80
2023/03/14 01:02:57;;;;;;;10.50;4.90;;;;;;;5.70;63.29;101177.97;4985795;28;20043;-81
2023/03/14 01:05:23;;;;;;;12.55;4.82;;;;;;;5.78;63.51;101181.97;4973668;28;20059;-85
2023/03/14 01:07:49;;;;;;;8.30;4.25;;;;;;;5.72;63.82;101178.78;4973724;28;20089;-84
2023/03/14 01:10:14;;;;;;;21.35;5.00;;;;;;;5.69;64.14;101176.28;4973624;28;20042;-83
2023/03/14 01:12:40;;;;;;;15.32;4.53;;;;;;;5.70;64.11;101173.50;4973421;28;20045;-85
2023/03/14 01:15:06;;;;;;;16.17;5.65;;;;;;;5.74;64.25;101180.41;4972813;28;20054;-85
2023/03/14 01:17:31;;;;;;;15.32;5.10;;;;;;;5.74;64.08;101174.22;4954719;28;20486;-84
2023/03/14 01:19:57;;;;;;;11.85;4.70;;;;;;;5.80;64.38;101173.88;4973113;28;20521;-82
2023/03/14 01:22:22;;;;;;;6.82;4.05;;;;;;;5.77;63.88;101147.34;4973584;28;20522;-82
2023/03/14 01:24:48;;;;;;;20.88;4.63;;;;;;;5.96;63.65;101177.50;4974036;28;20479;-84
2023/03/14 01:27:13;;;;;;;11.85;4.75;;;;;;;5.96;63.63;101170.34;4985878;28;20045;-82
2023/03/14 01:29:39;;;;;;;23.98;5.25;;;;;;;5.89;63.58;101157.41;4995488;28;20023;-83
2023/03/14 01:32:04;;;;;;;24.08;5.18;;;;;;;6.03;63.64;101171.75;4988356;28;20133;-84
2023/03/14 01:34:30;;;;;;;12.57;4.35;;;;;;;6.02;63.25;101169.16;4972454;28;20055;-83
2023/03/14 01:36:55;;;;;;;13.27;4.43;;;;;;;6.01;63.27;101172.78;4972645;28;20023;-85
2023/03/14 01:39:20;;;;;;;13.00;4.20;;;;;;;6.08;63.23;101158.16;4972121;28;20109;-85
2023/03/14 01:41:46;;;;;;;7.47;3.90;;;;;;;6.10;62.87;101160.72;4972314;28;20466;-84
2023/03/14 01:44:12;;;;;;;8.60;4.85;;;;;;;6.10;62.92;101172.28;4972533;28;20026;-83
2023/03/14 01:46:39;;;;;;;12.43;4.03;;;;;;;6.14;62.59;101172.97;4972685;28;20057;-84
2023/03/14 01:49:14;;;;;;;17.92;4.03;;;;;;;6.13;62.45;101177.44;4972149;28;20043;-84
2023/03/14 01:52:03;;;;;;;13.90;3.75;;;;;;;6.14;62.56;101176.50;4972188;28;20499;-81
2023/03/14 01:54:39;;;;;;;16.02;3.90;;;;;;;6.06;62.34;101157.34;4971970;28;20109;-84
2023/03/14 01:57:10;;;;;;;18.63;5.05;;;;;;;6.17;62.59;101173.69;4971888;28;20027;-80
2023/03/14 01:59:38;;;;;;;10.83;4.20;;;;;;;6.05;62.22;101170.81;4972079;28;20464;-86
2023/03/14 02:02:10;;;;;;;27.98;5.18;;;;;;;5.97;62.46;101165.88;4971542;28;20041;-85
2023/03/14 02:04:38;;;;;;;20.08;5.32;;;;;;;5.97;62.52;101181.88;4971988;28;20490;-85
2023/03/14 02:07:18;;;;;;;33.75;5.90;;;;;;;5.97;62.70;101171.19;4971742;28;20110;-85
2023/03/14 02:09:44;;;;;;;11.25;5.70;;;;;;;5.93;62.82;101164.31;4973175;28;20088;-86
2023/03/14 02:12:13;;;;;;;18.30;5.40;;;;;;;6.02;62.70;101161.16;4953553;28;20101;-85
2023/03/14 02:14:40;;;;;;;23.15;5.50;;;;;;;5.97;62.40;101150.72;4971430;28;20033;-86
2023/03/14 02:17:07;;;;;;;15.88;4.88;;;;;;;6.05;62.60;101161.00;4972034;28;20030;-85
2023/03/14 02:20:00;;;;;;;18.63;5.20;;;;;;;6.00;62.52;101155.03;4972008;28;20071;-84
2023/03/14 02:22:25;;;;;;;;;;;;;;;5.99;62.83;101161.31;4973140;28;20113;-84
2023/03/14 02:25:04;;;;;;;17.27;5.65;;;;;;;5.88;62.91;101155.69;4973694;28;19965;-82
2023/03/14 02:27:29;;;;;;;29.55;6.78;;;;;;;5.84;62.71;101175.47;4994936;28;20120;-81
2023/03/14 02:29:59;;;;;;;9.82;4.88;;;;;;;5.72;63.31;101173.44;4995052;28;20031;-81
2023/03/14 02:32:27;;;;;;;23.92;4.90;;;;;;;5.67;63.50;101167.47;4972959;28;20101;-85
2023/03/14 02:34:57;;;;;;;17.17;4.22;;;;;;;5.68;63.58;101169.19;4971521;28;20059;-83
2023/03/14 02:37:28;;;;;;;14.98;4.70;;;;;;;5.72;63.59;101186.78;4970241;28;20121;-83
2023/03/14 02:39:54;;;;;;;11.95;4.63;;;;;;;5.60;63.72;101182.94;4968753;28;20130;-82
2023/03/14 02:42:21;;;;;;;12.20;5.00;;;;;;;5.66;63.76;101181.72;4971019;28;20118;-84
2023/03/14 02:45:08;;;;;;;16.83;5.63;;;;;;;5.55;63.83;101186.78;4971156;28;20131;-83
2023/03/14 02:47:41;;;;;;;16.27;4.40;;;;;;;5.47;64.38;101182.69;4971537;28;20394;-87
2023/03/14 02:50:20;;;;;;;15.40;4.93;;;;;;;5.53;64.32;101178.00;4970935;28;20031;-86
2023/03/14 02:52:45;;;;;;;20.67;5.35;;;;;;;5.50;64.25;101177.19;4971527;28;20038;-85
2023/03/14 02:55:11;;;;;;;17.25;5.10;;;;;;;5.58;64.37;101189.28;4977538;28;20031;-84
2023/03/14 02:57:36;;;;;;;24.48;5.80;;;;;;;5.54;64.04;101182.38;4984383;28;20863;-85
2023/03/14 03:00:06;;;;;;;17.55;5.97;;;;;;;5.57;64.02;101188.41;4973078;28;20030;-86
2023/03/14 03:02:32;;;;;;;23.15;4.20;;;;;;;5.55;63.97;101189.44;4972912;28;20019;-85
2023/03/14 03:04:58;;;;;;;10.07;4.50;;;;;;;5.50;64.21;101193.19;4971966;28;20089;-85
2023/03/14 03:07:24;;;;;;;14.48;4.65;;;;;;;5.45;64.45;101189.06;4971562;28;20023;-86
2023/03/14 03:09:49;;;;;;;8.77;4.05;;;;;;;5.37;64.69;101186.78;4970685;28;20097;-82
2023/03/14 03:12:15;;;;;;;14.98;4.82;;;;;;;5.25;65.10;101178.56;4970679;28;20490;-86
2023/03/14 03:14:40;;;;;;;7.70;4.00;;;;;;;5.23;65.08;101183.94;4970745;28;20034;-84
2023/03/14 03:17:06;;;;;;;14.85;5.15;;;;;;;5.11;65.53;101184.56;4971910;28;20027;-87
2023/03/14 03:19:32;;;;;;;15.55;5.32;;;;;;;5.07;65.38;101177.69;4972709;28;20039;-83
2023/03/14 03:21:58;;;;;;;21.17;5.35;;;;;;;5.14;65.69;101167.53;4973117;28;20030;-84
2023/03/14 03:24:24;;;;;;;19.13;5.53;;;;;;;5.22;65.49;101166.25;4979103;28;20083;-84
2023/03/14 03:26:49;;;;;;;15.23;5.57;;;;;;;5.26;65.33;101167.78;4991866;28;20155;-80
2023/03/14 03:29:15;;;;;;;39.90;6.63;;;;;;;5.29;64.93;101162.31;5024242;28;20043;-84
2023/03/14 03:31:40;;;;;;;19.55;4.53;;;;;;;5.28;65.17;101176.59;4971242;28;20089;-83
2023/03/14 03:34:06;;;;;;;14.60;5.43;;;;;;;5.18;65.12;101164.66;4971670;28;20518;-82
2023/03/14 03:36:32;;;;;;;31.27;6.13;;;;;;;5.12;65.29;101156.97;4971073;28;20031;-82
2023/03/14 03:38:57;;;;;;;22.90;5.95;;;;;;;5.14;65.42;101160.41;4969724;28;20387;-85
2023/03/14 03:41:22;;;;;;;18.63;5.43;;;;;;;5.12;66.08;101154.31;4971408;28;20118;-84
2023/03/14 03:43:48;;;;;;;25.02;5.93;;;;;;;5.15;66.11;101147.94;4971248;28;20039;-84
2023/03/14 03:46:14;;;;;;;16.20;6.43;;;;;;;5.16;66.06;101145.22;4971915;28;20038;-84
2023/03/14 03:48:40;;;;;;;22.05;6.25;;;;;;;5.20;66.03;101146.78;4972761;28;20058;-83
2023/03/14 03:51:05;;;;;;;32.25;5.57;;;;;;;5.23;65.65;101151.94;4971760;28;20019;-86
2023/03/14 03:53:31;;;;;;;24.38;5.28;;;;;;;5.28;65.70;101149.06;4971010;28;20031;-87
2023/03/14 03:55:56;;;;;;;19.88;6.28;;;;;;;5.29;65.59;101154.28;4971315;28;20038;-84
2023/03/14 03:58:21;;;;;;;20.15;5.45;;;;;;;5.31;65.63;101155.09;4970617;28;20033;-85
2023/03/14 04:00:47;;;;;;;22.45;6.40;;;;;;;5.32;65.29;101159.47;4970478;28;20019;-79
2023/03/14 04:03:12;;;;;;;33.65;5.90;;;;;;;5.21;65.12;101144.97;4970751;28;20031;-87
2023/03/14 04:05:38;;;;;;;22.33;8.05;;;;;;;5.12;65.75;101140.09;4970555;28;20030;-85
2023/03/14 04:08:04;;;;;;;23.42;7.07;;;;;;;5.13;65.72;101147.19;4969933;28;20461;-83
2023/03/14 04:10:29;;;;;;;28.73;8.52;;;;;;;5.07;66.36;101147.50;4970806;28;20054;-82
2023/03/14 04:12:55;;;;;;;28.65;6.88;;;;;;;5.11;66.41;101152.56;4970695;28;20062;-85
2023/03/14 04:15:20;;;;;;;28.52;6.63;;;;;;;5.07;66.09;101135.03;4970427;28;20034;-87
2023/03/14 04:17:45;;;;;;;19.25;6.68;;;;;;;5.13;66.43;101155.19;4972098;28;20034;-85
2023/03/14 04:20:11;;;;;;;42.92;8.73;;;;;;;5.16;66.11;101155.88;4977068;28;20035;-83
2023/03/14 04:22:38;;;;;;;33.85;7.13;;;;;;;5.08;66.18;101141.19;4977586;28;20034;-83
2023/03/14 04:25:05;;;;;;;47.15;9.27;;;;;;;5.14;66.12;101147.09;4994525;28;20105;-82
2023/03/14 04:27:30;;;;;;;49.05;10.68;;;;;;;5.08;66.19;101136.72;4996009;28;20095;-84
2023/03/14 04:29:55;;;;;;;27.50;7.78;;;;;;;5.13;66.30;101145.38;4976749;28;20110;-85
2023/03/14 04:32:21;;;;;;;54.15;8.15;;;;;;;5.19;66.55;101144.19;4975159;28;20118;-83
2023/03/14 04:34:46;;;;;;;41.05;8.88;;;;;;;5.18;65.99;101139.78;4974156;28;20125;-85
2023/03/14 04:37:12;;;;;;;53.25;9.40;;;;;;;5.06;66.23;101132.41;4973769;28;20023;-86
2023/03/14 04:39:38;;;;;;;21.40;6.63;;;;;;;5.08;66.22;101136.72;4976401;28;20023;-86
2023/03/14 04:42:03;;;;;;;43.15;8.60;;;;;;;5.16;66.68;101150.56;4973749;28;20034;-83
2023/03/14 04:44:29;;;;;;;30.65;8.95;;;;;;;5.26;66.26;101146.47;4975324;28;20074;-87
2023/03/14 04:46:54;;;;;;;42.75;11.00;;;;;;;5.25;66.58;101152.75;4974566;28;20487;-81
2023/03/14 04:49:20;;;;;;;32.15;10.07;;;;;;;5.25;66.69;101144.75;4974863;28;20141;-85
2023/03/14 04:51:45;;;;;;;57.55;13.40;;;;;;;5.23;66.64;101141.28;4973066;28;20090;-81
2023/03/14 04:54:10;;;;;;;70.22;15.65;;;;;;;5.29;66.56;101140.13;4974408;28;20042;-86
2023/03/14 04:56:36;;;;;;;91.28;16.02;;;;;;;5.29;66.52;101145.47;4974792;28;20026;-84
2023/03/14 04:59:03;;;;;;;62.28;14.70;;;;;;;5.24;66.67;101137.69;4973560;28;20478;-85
2023/03/14 05:01:28;;;;;;;65.65;13.38;;;;;;;5.29;66.55;101132.97;4974312;28;20045;-86
2023/03/14 05:03:54;;;;;;;73.80;17.20;;;;;;;5.30;66.91;101136.50;4975488;28;20391;-84
2023/03/14 05:06:20;;;;;;;53.22;16.33;;;;;;;5.30;66.81;101136.50;4976813;28;20023;-86
2023/03/14 05:08:45;;;;;;;65.22;15.88;;;;;;;5.33;67.01;101121.22;4940280;28;20561;-85
2023/03/14 05:11:12;;;;;;;104.18;19.58;;;;;;;5.41;67.10;101129.66;4977128;28;20023;-81
2023/03/14 05:13:38;;;;;;;122.13;21.52;;;;;;;5.32;67.07;101134.63;4995524;28;20027;-82
2023/03/14 05:16:06;;;;;;;88.15;19.70;;;;;;;5.32;67.53;101139.97;4995673;28;20078;-80
2023/03/14 05:18:32;;;;;;;89.95;16.55;;;;;;;5.42;67.89;101147.41;4997800;28;20050;-83
2023/03/14 05:20:57;;;;;;;87.53;18.48;;;;;;;5.50;68.04;101149.69;4994271;28;20043;-81
2023/03/14 05:23:22;;;;;;;63.92;16.90;;;;;;;5.60;68.40;101152.69;4997729;28;20030;-82
2023/03/14 05:25:48;;;;;;;73.30;15.57;;;;;;;5.75;68.23;101147.44;4997688;28;20037;-82
2023/03/14 05:28:13;;;;;;;59.05;15.25;;;;;;;5.87;68.28;101154.81;4981088;28;21051;-84
2023/03/14 05:30:39;;;;;;;85.15;15.20;;;;;;;6.05;68.13;101142.31;4973120;28;20605;-85
2023/03/14 05:33:05;;;;;;;78.03;17.05;;;;;;;6.21;67.83;101145.84;4971481;28;20041;-86
2023/03/14 05:35:31;;;;;;;77.63;15.18;;;;;;;6.28;67.77;101144.56;4972437;28;20055;-85
2023/03/14 05:37:56;;;;;;;76.45;14.35;;;;;;;6.32;67.28;101118.53;4972825;28;20030;-84
2023/03/14 05:40:22;;;;;;;59.53;12.90;;;;;;;6.54;66.96;101125.25;4972643;28;20058;-83
2023/03/14 05:42:47;;;;;;;110.60;18.50;;;;;;;6.81;66.52;101151.38;4972986;28;20055;-84
2023/03/14 05:45:12;;;;;;;68.18;12.75;;;;;;;6.94;66.04;101149.72;4973063;28;20035;-85
2023/03/14 05:47:39;;;;;;;45.10;11.13;;;;;;;7.02;65.89;101142.09;4972247;28;20049;-84
2023/03/14 05:50:05;;;;;;;73.00;12.88;;;;;;;7.15;65.45;101150.25;4972370;28;20450;-83
2023/03/14 05:52:30;;;;;;;57.30;9.90;;;;;;;7.29;65.45;101145.81;4972585;28;20425;-85
2023/03/14 05:54:56;;;;;;;60.33;9.38;;;;;;;7.41;64.59;101144.22;4975573;28;20027;-84
2023/03/14 05:57:21;;;;;;;82.57;11.63;;;;;;;7.58;64.76;101142.22;4974199;28;20046;-84
2023/03/14 05:59:46;;;;;;;25.33;8.07;;;;;;;7.71;64.16;101144.16;4972992;28;20035;-86
2023/03/14 06:02:12;;;;;;;67.10;9.77;;;;;;;7.87;63.76;101144.94;4973026;28;20458;-85
2023/03/14 06:04:37;;;;;;;26.67;7.80;;;;;;;8.01;63.45;101139.59;4972164;28;20715;-84
2023/03/14 06:07:03;;;;;;;48.50;8.73;;;;;;;8.05;62.70;101136.63;4973034;28;20490;-85
2023/03/14 06:09:28;;;;;;;19.65;6.28;;;;;;;8.21;62.80;101136.53;4975881;28;20402;-85
2023/03/14 06:11:54;;;;;;;20.67;6.22;;;;;;;8.34;62.27;101140.19;4975004;28;20035;-86
2023/03/14 06:14:19;;;;;;;14.98;4.78;;;;;;;8.45;61.63;101131.44;4972290;28;20513;-85
2023/03/14 06:16:44;;;;;;;11.63;3.15;;;;;;;8.55;60.80;101140.63;4973005;28;20031;-85
2023/03/14 06:19:11;;;;;;;8.45;4.38;;;;;;;8.59;60.82;101144.84;4972637;28;20094;-85
2023/03/14 06:21:36;;;;;;;19.27;5.38;;;;;;;8.64;60.37;101140.88;4985067;28;20071;-81
2023/03/14 06:24:02;;;;;;;12.40;3.35;;;;;;;8.62;59.73;101126.69;4994452;28;20121;-84
2023/03/14 06:26:28;;;;;;;12.20;3.75;;;;;;;8.80;59.84;101134.50;4985066;28;20034;-86
2023/03/14 06:28:54;;;;;;;52.85;8.00;;;;;;;9.00;59.61;101142.09;4971772;28;20034;-84
2023/03/14 06:31:19;;;;;;;32.53;6.53;;;;;;;9.16;59.69;101142.78;4971511;28;20073;-85
2023/03/14 06:33:45;;;;;;;12.18;2.65;;;;;;;9.14;58.93;101128.63;4973309;28;20109;-85
2023/03/14 06:36:30;;;;;;;21.65;5.18;;;;;;;9.13;59.04;101129.59;4974886;28;20131;-84
2023/03/14 06:38:56;;;;;;;15.65;5.43;;;;;;;9.17;58.72;101128.41;4963018;28;21050;-86
2023/03/14 06:41:23;;;;;;;45.63;7.10;;;;;;;9.32;58.59;101116.63;4949265;28;20042;-85
2023/03/14 06:43:49;;;;;;;25.25;6.95;;;;;;;9.46;58.34;101131.78;4950471;28;20039;-84
2023/03/14 06:46:15;;;;;;;45.95;10.18;;;;;;;9.49;58.19;101108.28;4949951;29;20538;-86
2023/03/14 06:48:41;;;;;;;43.50;7.85;;;;;;;9.79;57.61;101124.94;4950104;28;20031;-83
2023/03/14 06:51:06;;;;;;;8.80;3.97;;;;;;;9.68;57.41;101106.03;4950920;29;20054;-85
2023/03/14 06:53:32;;;;;;;22.38;4.63;;;;;;;9.80;57.81;101125.81;4953509;29;20146;-85
2023/03/14 06:55:57;;;;;;;34.78;6.18;;;;;;;9.74;58.09;101112.78;4954440;29;20027;-86
2023/03/14 06:58:23;;;;;;;30.25;4.88;;;;;;;9.72;57.36;101114.75;4953386;28;20039;-85
2023/03/14 07:00:48;;;;;;;33.45;4.45;;;;;;;9.48;58.11;101111.09;4952228;29;20094;-86
2023/03/14 07:03:14;;;;;;;28.08;4.53;;;;;;;9.50;58.42;101110.00;4950503;29;20054;-85
2023/03/14 07:05:40;;;;;;;31.02;5.10;;;;;;;9.44;58.80;101105.06;4950963;29;20035;-84
2023/03/14 07:08:06;;;;;;;17.40;3.45;;;;;;;9.53;58.59;101111.63;4951134;28;20209;-83
2023/03/14 07:10:32;;;;;;;33.83;4.30;;;;;;;9.48;58.81;101108.41;4950729;28;20043;-85
2023/03/14 07:12:57;;;;;;;24.42;4.97;;;;;;;9.34;59.25;101103.09;4950555;28;20483;-83
2023/03/14 07:15:23;;;;;;;29.17;4.68;;;;;;;9.19;59.38;101107.69;4954189;28;20062;-85
2023/03/14 07:17:48;;;;;;;55.25;7.97;;;;;;;9.27;59.63;101097.28;4987430;28;20418;-83
2023/03/14 07:20:13;;;;;;;28.48;3.90;;;;;;;9.22;59.46;101086.88;4977672;28;20038;-80
2023/03/14 07:22:39;;;;;;;15.98;3.28;;;;;;;9.33;59.71;101096.88;4992549;28;20085;-85
2023/03/14 07:25:05;;;;;;;16.45;2.88;;;;;;;9.31;59.34;101096.13;4992326;28;20046;-83
2023/03/14 07:27:30;;;;;;;72.20;23.33;;;;;;;9.24;59.72;101092.13;4974075;28;20037;-84
2023/03/14 07:29:56;;;;;;;12.55;2.53;;;;;;;9.32;59.95;101084.44;4974259;28;20026;-85
2023/03/14 07:32:21;;;;;;;7.60;3.03;;;;;;;9.30;59.40;101091.72;4971594;28;20030;-85
2023/03/14 07:34:47;;;;;;;27.45;3.45;;;;;;;9.23;59.65;101101.16;4971320;28;20046;-83
2023/03/14 07:37:12;;;;;;;14.68;3.25;;;;;;;9.38;59.66;101096.56;4971820;28;20030;-84
2023/03/14 07:39:37;;;;;;;15.85;2.50;;;;;;;9.34;59.37;101081.63;4970858;28;20054;-85
2023/03/14 07:42:03;;;;;;;7.70;2.42;;;;;;;9.48;59.56;101097.66;4970505;28;20407;-83
2023/03/14 07:44:28;;;;;;;12.52;3.25;;;;;;;9.37;59.66;101092.16;4970881;28;20023;-84
2023/03/14 07:46:54;;;;;;;32.95;4.15;;;;;;;9.31;59.72;101093.44;4971115;28;20038;-86
2023/03/14 07:49:19;;;;;;;16.17;2.80;;;;;;;9.35;59.72;101086.91;4970936;28;20050;-85
2023/03/14 07:51:47;;;;;;;47.88;5.85;;;;;;;9.34;60.19;101084.31;4970454;28;20552;-86
2023/03/14 07:54:13;;;;;;;25.65;3.92;;;;;;;9.34;59.70;101085.19;4973343;28;20023;-85
2023/03/14 07:56:39;;;;;;;8.43;2.63;;;;;;;9.43;60.26;101081.84;5005826;28;20744;-85
2023/03/14 07:59:04;;;;;;;11.05;2.30;;;;;;;9.34;59.81;101087.00;4974115;28;20034;-84
2023/03/14 08:01:29;;;;;;;7.05;2.50;;;;;;;9.27;60.60;101075.81;4973945;28;20034;-84
2023/03/14 08:03:55;;;;;;;21.40;2.00;;;;;;;9.23;60.40;101068.97;4974578;28;20037;-85
2023/03/14 08:06:20;;;;;;;26.35;3.35;;;;;;;9.27;60.08;101074.00;4973424;28;20047;-84
2023/03/14 08:08:46;;;;;;;11.73;2.97;;;;;;;9.33;60.34;101079.94;4975003;28;20038;-87
2023/03/14 08:11:11;;;;;;;29.67;3.17;;;;;;;9.38;60.45;101073.28;4974307;28;20114;-86
2023/03/14 08:13:37;;;;;;;16.27;2.42;;;;;;;9.50;59.96;101077.78;4974628;28;20051;-84
2023/03/14 08:16:04;;;;;;;13.63;2.72;;;;;;;9.52;59.54;101073.16;4975852;28;20094;-85
2023/03/14 08:18:30;;;;;;;10.10;3.33;;;;;;;9.62;59.72;101071.56;4977740;28;20106;-81
2023/03/14 08:20:55;;;;;;;28.48;4.80;;;;;;;9.72;59.71;101061.84;4994328;28;20038;-83
2023/03/14 08:23:21;;;;;;;18.55;2.65;;;;;;;9.72;59.16;101056.47;4996913;28;20030;-83
2023/03/14 08:25:49;;;;;;;29.95;2.92;;;;;;;9.77;59.22;101059.72;4980340;28;20039;-87
2023/03/14 08:28:14;;;;;;;5.05;2.45;;;;;;;9.84;58.98;101058.31;4974348;28;20531;-83
2023/03/14 08:30:39;;;;;;;27.27;3.85;;;;;;;9.88;58.93;101047.38;4974128;28;20053;-85
2023/03/14 08:33:05;;;;;;;12.13;2.20;;;;;;;9.88;58.30;101055.41;4974278;28;20035;-85
2023/03/14 08:35:30;;;;;;;13.48;3.30;;;;;;;9.85;58.78;101051.97;4974332;28;20062;-86
2023/03/14 08:37:56;;;;;;;9.32;3.33;;;;;;;9.72;58.98;101055.66;4974413;28;20033;-86
2023/03/14 08:40:21;;;;;;;5.70;2.67;;;;;;;9.73;59.48;101057.34;4974588;28;20027;-83
2023/03/14 08:42:47;;;;;;;8.18;3.33;;;;;;;9.59;59.74;101054.78;4973993;28;20026;-83
2023/03/14 08:45:16;;;;;;;20.85;2.78;;;;;;;9.82;59.91;101049.50;4973903;28;20034;-84
2023/03/14 08:47:41;;;;;;;14.10;3.53;;;;;;;10.05;59.62;101044.31;4973962;28;20558;-84
2023/03/14 08:50:07;;;;;;;24.02;2.40;;;;;;;10.14;58.65;101043.66;4973833;28;20126;-84
2023/03/14 08:52:33;;;;;;;15.40;3.25;;;;;;;10.23;59.03;101034.94;4974969;28;20533;-86
2023/03/14 08:54:58;;;;;;;19.55;3.50;;;;;;;10.32;59.05;101035.13;4974623;28;20043;-84
2023/03/14 08:57:27;;;;;;;15.23;2.45;;;;;;;10.46;58.27;101028.69;4973886;28;20027;-85
2023/03/14 08:59:55;;;;;;;19.50;2.25;;;;;;;10.48;58.30;101026.78;4974524;28;20118;-85
2023/03/14 09:02:20;;;;;;;21.48;3.60;;;;;;;10.26;58.80;101024.81;4974716;28;20033;-85
2023/03/14 09:04:46;;;;;;;14.80;2.38;;;;;;;10.22;58.08;101019.75;4973124;28;20031;-85
2023/03/14 09:07:11;;;;;;;7.78;2.25;;;;;;;10.04;59.46;101021.06;4973416;28;20034;-85
2023/03/14 09:09:36;;;;;;;18.30;3.55;;;;;;;10.02;59.27;101013.16;4974266;28;20022;-84
2023/03/14 09:12:02;;;;;;;18.98;3.22;;;;;;;10.10;58.90;101015.25;4974118;28;20027;-85
2023/03/14 09:14:28;;;;;;;19.85;2.55;;;;;;;10.15;58.98;101011.28;4979055;28;20062;-85
2023/03/14 09:16:54;;;;;;;10.25;2.80;;;;;;;10.32;58.87;101002.84;4984729;28;20348;-85
2023/03/14 09:19:20;;;;;;;13.50;2.10;;;;;;;10.25;58.66;100992.66;4991340;28;20025;-82
2023/03/14 09:21:45;;;;;;;23.95;3.83;;;;;;;10.27;59.13;100999.63;4992974;28;20027;-83
2023/03/14 09:24:11;;;;;;;9.68;3.05;;;;;;;10.32;59.50;100991.22;4984651;28;20030;-86
2023/03/14 09:26:36;;;;;;;25.63;3.67;;;;;;;10.52;59.05;100998.66;4961971;28;20051;-86
2023/03/14 09:29:02;;;;;;;28.52;4.05;;;;;;;10.49;58.80;100982.75;4987464;28;20774;-84
2023/03/14 09:31:28;;;;;;;12.50;3.78;;;;;;;10.64;58.62;100986.13;4982418;28;20035;-83
2023/03/14 09:33:54;;;;;;;10.63;2.78;;;;;;;10.77;58.97;100990.44;4984689;28;20033;-83
2023/03/14 09:36:19;;;;;;;16.05;2.78;;;;;;;10.81;58.64;100994.63;4985489;28;20101;-86
2023/03/14 09:38:44;;;;;;;34.97;3.45;;;;;;;10.84;58.40;100994.41;4981317;28;20034;-86
2023/03/14 09:41:17;;;;;;;16.10;3.45;;;;;;;10.89;58.36;100986.81;4978813;28;20031;-85
2023/03/14 09:43:45;;;;;;;9.18;2.67;;;;;;;10.88;58.07;100985.13;4974462;28;20027;-84
2023/03/14 09:46:13;;;;;;;21.83;2.72;;;;;;;10.70;59.33;100985.66;4973300;28;20030;-86
2023/03/14 09:48:40;;;;;;;11.38;2.00;;;;;;;10.64;59.18;100986.97;4972330;28;20072;-84
2023/03/14 09:51:14;;;;;;;9.27;2.40;;;;;;;10.79;60.00;100991.19;4972351;28;20026;-88
2023/03/14 09:53:45;;;;;;;16.17;3.00;;;;;;;10.78;58.96;100978.72;4972134;28;20034;-83
2023/03/14 09:56:16;;;;;;;8.27;2.20;;;;;;;10.94;58.17;100973.03;4972942;28;20034;-84
2023/03/14 09:58:44;;;;;;;11.88;2.10;;;;;;;10.79;57.96;100972.34;4953857;28;20051;-83
2023/03/14 10:01:14;;;;;;;7.65;2.28;;;;;;;10.90;59.06;100977.78;4972370;28;20037;-84
2023/03/14 10:03:43;;;;;;;15.07;3.20;;;;;;;11.04;58.21;100978.56;4971953;28;20505;-84
2023/03/14 10:06:12;;;;;;;8.60;1.90;;;;;;;10.87;57.55;100964.56;4973305;28;20030;-85
2023/03/14 10:08:40;;;;;;;14.80;2.70;;;;;;;10.74;57.63;100965.59;4974653;28;20030;-85
2023/03/14 10:11:07;;;;;;;14.15;1.98;;;;;;;10.74;58.39;100961.09;4974022;28;20019;-86
2023/03/14 10:13:32;;;;;;;13.88;3.22;;;;;;;10.75;58.84;100957.44;4974802;28;20481;-87
2023/03/14 10:16:06;;;;;;;11.07;2.35;;;;;;;10.78;59.18;100959.88;4973238;28;20061;-87
2023/03/14 10:18:34;;;;;;;8.68;2.88;;;;;;;10.76;59.61;100963.69;4990234;28;20042;-81
2023/03/14 10:21:20;;;;;;;7.70;3.13;;;;;;;10.94;59.19;100954.19;4990810;28;20061;-85
2023/03/14 10:23:46;;;;;;;7.32;2.30;;;;;;;10.86;58.15;100943.13;4974637;28;20037;-86
2023/03/14 10:26:18;;;;;;;16.40;2.50;;;;;;;10.75;59.33;100951.19;4969089;28;20043;-86
2023/03/14 10:29:12;;;;;;;23.27;3.53;;;;;;;10.71;58.92;100945.19;4972039;28;20041;-83
2023/03/14 10:31:47;;;;;;;6.05;1.70;;;;;;;10.50;59.32;100932.53;4912512;29;20035;-85
2023/03/14 10:34:17;;;;;;;14.40;2.30;;;;;;;10.53;59.58;100925.06;4911377;29;20060;-86
2023/03/14 10:36:42;;;;;;;10.18;3.63;;;;;;;10.71;58.82;100925.50;4911350;29;20463;-86
2023/03/14 10:39:28;;;;;;;8.57;1.92;;;;;;;10.60;58.55;100912.88;4914744;29;20035;-86
2023/03/14 10:42:19;;;;;;;12.32;3.40;;;;;;;10.67;58.44;100906.03;4912230;29;20032;-85
2023/03/14 10:44:45;;;;;;;14.38;2.88;;;;;;;10.86;57.30;100911.72;4912159;29;20158;-85
2023/03/14 10:47:19;;;;;;;23.60;2.80;;;;;;;11.08;58.60;100904.63;4911142;29;20032;-84
2023/03/14 10:49:45;;;;;;;7.97;2.17;;;;;;;11.10;57.06;100894.63;4911521;29;20555;-83
2023/03/14 10:52:27;;;;;;;9.07;2.50;;;;;;;11.17;57.67;100879.69;4911693;29;20047;-85
2023/03/14 10:55:01;;;;;;;7.70;2.00;;;;;;;11.30;56.95;100883.97;4911690;29;20040;-86
2023/03/14 10:57:27;;;;;;;9.75;2.15;;;;;;;11.38;55.90;100877.97;4915372;29;20032;-85
2023/03/14 10:59:56;;;;;;;11.57;2.42;;;;;;;11.56;55.59;100883.72;4913144;29;20099;-86
2023/03/14 11:02:28;;;;;;;9.20;1.75;;;;;;;11.65;54.25;100872.19;4909628;29;20040;-84
2023/03/14 11:05:08;;;;;;;23.37;3.63;;;;;;;11.79;53.43;100856.63;4914348;29;20039;-85
2023/03/14 11:07:42;;;;;;;8.15;2.30;;;;;;;11.98;53.74;100854.13;4900884;28;20188;-86
2023/03/14 11:10:23;;;;;;;17.00;2.85;;;;;;;12.05;53.74;100856.31;4971668;28;20022;-86
2023/03/14 11:12:54;;;;;;;20.02;3.97;;;;;;;11.91;50.41;100841.25;4972420;28;20031;-82
2023/03/14 11:15:48;;;;;;;20.45;7.35;;;;;;;11.86;52.79;100838.94;4975297;28;20063;-83
2023/03/14 11:18:28;;;;;;;4.20;1.67;;;;;;;12.06;52.90;100834.59;4950559;29;20560;-83
2023/03/14 11:21:02;;;;;;;86.38;8.82;;;;;;;11.96;52.59;100826.41;4951013;29;20048;-86
2023/03/14 11:23:37;;;;;;;16.55;2.20;;;;;;;11.80;52.22;100817.88;4930186;29;20118;-84
2023/03/14 11:26:06;;;;;;;15.13;2.88;;;;;;;11.65;52.31;100802.13;4931051;29;20043;-85